Time;durP1;ratioP1;P1;durP2;ratioP2;P2;SDS_P1;SDS_P2;PMS_P1;PMS_P2;Temp;Humidity;BMP_temperature;BMP_pressure;BME280_temperature;BME280_humidity;BME280_pressure;Samples;Min_cycle;Max_cycle;Signal;HPM_P1;HPM_P2
2022/07/05 00:08:32;;;;;;;3.72;1.80;;;;;;;27.09;44.17;100337.00;18558354;32;20115;-56
2022/07/05 00:18:37;;;;;;;4.25;1.90;;;;;;;28.07;44.08;100326.22;18558606;31;20441;-56
2022/07/05 00:28:40;;;;;;;5.62;2.20;;;;;;;28.07;43.40;100328.91;18557016;32;20208;-57
2022/07/05 00:38:45;;;;;;;2.70;1.50;;;;;;;27.43;45.16;100345.22;18557415;32;20205;-56
2022/07/05 00:48:48;;;;;;;3.10;2.00;;;;;;;27.08;46.12;100345.16;18556735;32;20110;-56
2022/07/05 00:58:53;;;;;;;2.55;1.50;;;;;;;26.51;47.42;100334.88;18563809;31;20507;-56
2022/07/05 01:08:56;;;;;;;3.03;1.50;;;;;;;27.70;45.35;100311.97;18573188;31;20083;-56
2022/07/05 01:19:01;;;;;;;4.78;1.90;;;;;;;28.18;44.16;100323.53;18554850;32;20104;-55
2022/07/05 01:29:05;;;;;;;3.97;1.55;;;;;;;26.21;48.64;100337.84;18554191;32;20522;-56
2022/07/05 01:39:09;;;;;;;2.45;1.50;;;;;;;26.40;48.49;100340.09;18554192;32;20106;-56
2022/07/05 01:49:16;;;;;;;2.92;1.55;;;;;;;27.04;47.05;100327.59;18562065;32;20100;-56
2022/07/05 01:59:19;;;;;;;2.90;1.60;;;;;;;27.20;47.01;100320.12;18562484;32;20452;-56
2022/07/05 02:09:24;;;;;;;3.70;1.50;;;;;;;27.58;44.29;100312.91;18562189;32;20456;-56
2022/07/05 02:19:27;;;;;;;2.42;1.52;;;;;;;27.32;45.21;100322.88;18561783;32;20081;-56
2022/07/05 02:29:32;;;;;;;1.98;1.37;;;;;;;27.85;45.07;100322.53;18561292;32;20112;-56
2022/07/05 02:39:35;;;;;;;3.22;1.40;;;;;;;27.62;46.00;100316.22;18561255;32;20105;-56
2022/07/05 02:49:40;;;;;;;2.53;1.23;;;;;;;26.90;46.49;100316.06;18560277;32;20187;-56
2022/07/05 02:59:43;;;;;;;2.92;1.33;;;;;;;27.65;45.48;100311.50;18560388;32;20095;-56
2022/07/05 03:09:48;;;;;;;4.28;1.50;;;;;;;27.59;46.08;100301.22;18560591;32;20412;-56
2022/07/05 03:19:51;;;;;;;3.03;1.58;;;;;;;27.63;46.67;100302.69;18559826;32;20131;-55
2022/07/05 03:29:55;;;;;;;1.30;1.20;;;;;;;27.28;47.90;100319.59;18559438;32;20633;-56
2022/07/05 03:39:59;;;;;;;6.05;1.90;;;;;;;26.99;48.79;100325.25;18559296;32;20408;-55
2022/07/05 03:50:03;;;;;;;2.20;1.50;;;;;;;26.58;50.83;100327.25;18559092;32;20096;-56
2022/07/05 04:00:08;;;;;;;3.55;1.50;;;;;;;26.66;50.45;100330.22;18558835;32;20110;-56
2022/07/05 04:10:13;;;;;;;3.37;1.58;;;;;;;26.52;51.67;100357.97;18557248;32;20104;-56
2022/07/05 04:20:16;;;;;;;4.25;1.50;;;;;;;26.54;52.54;100352.50;18558157;32;20136;-55
2022/07/05 04:30:23;;;;;;;5.60;2.35;;;;;;;26.77;52.29;100358.91;18557484;32;20114;-56
2022/07/05 04:40:26;;;;;;;4.72;1.80;;;;;;;27.02;52.71;100346.47;18557020;32;20119;-56
2022/07/05 04:50:31;;;;;;;3.83;1.77;;;;;;;27.63;51.82;100352.78;18556615;32;20096;-56
2022/07/05 05:00:35;;;;;;;5.25;1.52;;;;;;;27.66;51.31;100348.06;18578831;31;20475;-56
2022/07/05 05:10:41;;;;;;;2.47;1.55;;;;;;;27.60;51.71;100335.09;18559977;31;20084;-55
2022/07/05 05:20:44;;;;;;;5.05;1.85;;;;;;;27.65;48.96;100349.03;18562157;32;20120;-56
2022/07/05 05:30:48;;;;;;;3.85;1.50;;;;;;;28.49;47.59;100341.78;18564424;32;20432;-56
2022/07/05 05:40:52;;;;;;;1.92;1.33;;;;;;;27.58;50.50;100331.69;18565571;31;20127;-56
2022/07/05 05:50:58;;;;;;;3.75;1.70;;;;;;;27.68;50.51;100337.19;18605648;31;20091;-56
2022/07/05 06:01:02;;;;;;;4.03;1.60;;;;;;;27.47;50.14;100320.88;18590656;31;20136;-55
2022/07/05 06:11:07;;;;;;;3.90;1.40;;;;;;;28.36;43.27;100325.78;18588331;31;20084;-58
2022/07/05 06:21:10;;;;;;;3.15;1.58;;;;;;;28.85;41.12;100350.59;18591030;31;20086;-56
2022/07/05 06:31:15;;;;;;;4.00;1.60;;;;;;;29.48;41.64;100371.47;18569846;31;20115;-56
2022/07/05 06:41:18;;;;;;;2.25;1.40;;;;;;;29.69;43.98;100386.84;18594885;31;20161;-56
2022/07/05 06:51:22;;;;;;;2.30;1.37;;;;;;;29.64;40.31;100359.47;18625973;31;20114;-56
2022/07/05 07:01:26;;;;;;;3.60;1.30;;;;;;;29.82;39.18;100362.41;18613696;31;20380;-55
2022/07/05 07:11:31;;;;;;;1.92;1.08;;;;;;;29.54;39.70;100366.59;18629218;31;20091;-56
2022/07/05 07:21:34;;;;;;;2.45;1.05;;;;;;;28.97;41.81;100359.47;18628438;31;20391;-55
2022/07/05 07:31:39;;;;;;;4.32;1.30;;;;;;;29.93;38.66;100342.69;18629408;31;20110;-56
2022/07/05 07:41:42;;;;;;;3.72;1.23;;;;;;;30.49;38.45;100335.22;18627795;31;20785;-56
2022/07/05 07:51:47;;;;;;;1.73;1.10;;;;;;;31.31;36.03;100327.16;18612952;31;20087;-55
2022/07/05 08:01:51;;;;;;;1.73;1.20;;;;;;;30.59;36.75;100327.16;18627581;31;20135;-55
2022/07/05 08:11:56;;;;;;;3.80;1.40;;;;;;;30.14;37.31;100325.69;18627128;31;20092;-55
2022/07/05 08:21:58;;;;;;;2.60;1.05;;;;;;;29.93;37.96;100312.22;18585738;31;20088;-56
2022/07/05 08:32:02;;;;;;;2.50;1.30;;;;;;;29.97;38.84;100321.75;18561004;32;20432;-56
2022/07/05 08:42:10;;;;;;;2.50;1.30;;;;;;;29.74;38.66;100329.97;18571903;31;20105;-56
2022/07/05 08:52:15;;;;;;;3.70;1.17;;;;;;;30.91;36.05;100325.31;18561779;31;20119;-57
2022/07/05 09:02:18;;;;;;;2.62;1.02;;;;;;;31.49;35.31;100329.09;18559493;31;20092;-57
2022/07/05 09:12:25;;;;;;;1.52;1.10;;;;;;;32.02;35.64;100324.25;18574171;31;20444;-57
2022/07/05 09:22:42;;;;;;;2.03;1.20;;;;;;;32.04;34.28;100331.22;18601884;31;20092;-57
2022/07/05 09:32:48;;;;;;;1.05;0.80;;;;;;;31.80;34.20;100334.38;18617508;31;20457;-57
2022/07/05 09:42:51;;;;;;;1.87;1.10;;;;;;;32.15;33.96;100324.78;18573342;31;20122;-57
2022/07/05 09:52:59;;;;;;;1.48;1.05;;;;;;;31.30;36.25;100330.81;18621534;31;20376;-57
2022/07/05 10:03:02;;;;;;;1.25;0.82;;;;;;;31.42;36.73;100334.22;18624031;31;20100;-57
2022/07/05 10:13:06;;;;;;;2.08;0.90;;;;;;;30.97;36.90;100324.78;18630108;31;20084;-56
2022/07/05 10:23:12;;;;;;;2.55;1.20;;;;;;;30.98;37.13;100331.87;18612371;31;20119;-57
2022/07/05 10:33:24;;;;;;;3.83;1.25;;;;;;;30.37;38.69;100366.78;18620114;31;20438;-56
2022/07/05 10:43:28;;;;;;;5.22;1.27;;;;;;;28.45;43.92;100404.72;18627627;31;20088;-57
2022/07/05 10:54:03;;;;;;;3.58;1.52;;;;;;;27.93;45.90;100356.78;18622121;31;20097;-56
2022/07/05 11:04:27;;;;;;;3.08;1.23;;;;;;;27.77;48.38;100366.00;18569892;31;20115;-56
2022/07/05 11:14:34;;;;;;;2.97;1.50;;;;;;;26.17;52.98;100394.19;18615235;31;20088;-57
2022/07/05 11:24:38;;;;;;;2.80;1.40;;;;;;;25.89;59.28;100441.53;18587299;31;20112;-56
2022/07/05 11:34:43;;;;;;;3.22;1.20;;;;;;;25.00;61.80;100448.09;18606968;31;20100;-56
2022/07/05 11:44:50;;;;;;;2.87;1.25;;;;;;;24.51;63.37;100442.09;18570781;31;20483;-56
2022/07/05 11:54:59;;;;;;;1.67;1.13;;;;;;;24.33;65.98;100474.28;18617485;31;20128;-56
2022/07/05 12:05:03;;;;;;;5.12;1.85;;;;;;;24.44;66.41;100452.28;18560026;31;20447;-56
2022/07/05 12:15:09;;;;;;;2.00;1.10;;;;;;;24.46;66.89;100437.03;18564205;31;20132;-56
2022/07/05 12:25:14;;;;;;;4.93;1.65;;;;;;;24.53;66.61;100405.53;18558810;31;20154;-56
2022/07/05 12:35:32;;;;;;;3.85;1.60;;;;;;;24.34;66.05;100417.31;18558647;31;20119;-56
2022/07/05 12:45:37;;;;;;;4.07;1.90;;;;;;;24.33;67.96;100407.59;18548933;32;329923;-56
2022/07/05 13:06:03;;;;;;;2.90;1.33;;;;;;;24.74;67.40;100397.97;18557056;32;20187;-56
2022/07/05 13:16:07;;;;;;;3.58;1.70;;;;;;;24.73;68.02;100380.25;18573754;31;20136;-57
2022/07/05 13:26:12;;;;;;;2.47;1.40;;;;;;;24.99;64.80;100364.44;18606687;31;20100;-56
2022/07/05 13:36:16;;;;;;;3.92;1.70;;;;;;;25.27;66.46;100359.13;18594917;31;20096;-56
2022/07/05 13:46:19;;;;;;;4.60;1.70;;;;;;;24.40;67.20;100336.06;18549168;32;20169;-57
2022/07/05 13:56:25;;;;;;;2.78;1.37;;;;;;;25.21;67.14;100334.56;18568163;31;20161;-56
2022/07/05 14:06:30;;;;;;;2.75;1.33;;;;;;;25.19;64.62;100323.12;18569699;31;20136;-56
2022/07/05 14:16:35;;;;;;;2.53;1.45;;;;;;;25.17;64.98;100324.16;18563310;32;20168;-56
2022/07/05 14:26:39;;;;;;;3.28;1.30;;;;;;;25.13;65.45;100317.28;18564028;32;20115;-56
2022/07/05 14:36:44;;;;;;;2.45;1.20;;;;;;;24.91;64.27;100303.53;18599824;31;20357;-56
2022/07/05 14:46:47;;;;;;;1.77;1.25;;;;;;;25.16;64.12;100285.06;18588217;31;20123;-56
2022/07/05 14:56:51;;;;;;;2.72;1.20;;;;;;;25.11;62.88;100287.16;18569886;31;20095;-56
2022/07/05 15:07:02;;;;;;;3.58;1.55;;;;;;;25.46;63.08;100273.31;18597248;31;20092;-56
2022/07/05 15:17:07;;;;;;;4.87;1.60;;;;;;;25.98;59.15;100271.59;18588198;31;20097;-56
2022/07/05 15:27:10;;;;;;;2.97;1.40;;;;;;;25.31;60.17;100262.66;18562868;32;20120;-56
2022/07/05 15:37:23;;;;;;;3.25;1.40;;;;;;;26.20;59.13;100263.91;18601275;31;20119;-56
2022/07/05 15:47:27;;;;;;;1.60;1.15;;;;;;;25.96;59.91;100262.81;18582769;31;20107;-56
2022/07/05 15:57:32;;;;;;;4.05;1.48;;;;;;;25.85;57.53;100258.22;18596833;31;20112;-56
2022/07/05 16:07:35;;;;;;;3.20;1.67;;;;;;;25.68;58.25;100253.16;18579062;31;20135;-56
2022/07/05 16:17:39;;;;;;;1.77;1.40;;;;;;;25.93;59.01;100243.47;18612949;31;20364;-56
2022/07/05 16:27:43;;;;;;;3.10;1.60;;;;;;;26.12;58.98;100240.34;18579252;31;20115;-57
2022/07/05 16:37:47;;;;;;;3.33;1.62;;;;;;;26.24;58.42;100239.53;18588790;31;20113;-56
2022/07/05 16:47:51;;;;;;;2.17;1.50;;;;;;;26.34;58.13;100234.34;18571857;31;20104;-57
2022/07/05 16:57:59;;;;;;;2.37;1.50;;;;;;;26.11;58.72;100231.47;18589789;31;20095;-57
2022/07/05 17:08:02;;;;;;;3.75;1.70;;;;;;;25.94;59.95;100218.44;18600031;31;20652;-57
2022/07/05 17:18:07;;;;;;;4.78;1.83;;;;;;;26.02;56.89;100232.12;18601878;31;20151;-57
2022/07/05 17:28:12;;;;;;;4.10;1.80;;;;;;;25.85;58.39;100218.09;18565829;32;20096;-57
2022/07/05 17:38:16;;;;;;;3.60;1.58;;;;;;;25.79;61.57;100239.06;18573219;31;20151;-57
2022/07/05 17:48:19;;;;;;;3.50;1.60;;;;;;;25.75;60.64;100257.13;18579044;31;20088;-57
2022/07/05 17:58:27;;;;;;;2.37;1.48;;;;;;;25.57;58.78;100265.44;18602020;31;20092;-57
2022/07/05 18:08:30;;;;;;;4.53;1.55;;;;;;;25.52;57.30;100290.75;18597083;31;20107;-56
2022/07/05 18:18:35;;;;;;;4.03;1.80;;;;;;;25.47;58.44;100297.25;18562511;32;20491;-57
2022/07/05 18:28:39;;;;;;;3.53;1.50;;;;;;;25.07;59.81;100276.69;18558350;32;20145;-56
2022/07/05 18:38:43;;;;;;;2.42;1.42;;;;;;;24.91;59.05;100276.84;18618275;31;20506;-57
2022/07/05 18:48:46;;;;;;;3.05;1.62;;;;;;;24.80;59.85;100264.19;18562760;32;20445;-56
2022/07/05 18:58:53;;;;;;;3.37;1.80;;;;;;;24.90;60.46;100274.28;18503141;32;20181;-56
2022/07/05 19:19:19;;;;;;;2.58;1.60;;;;;;;24.60;61.32;100268.09;18561883;32;20434;-56
2022/07/05 19:29:22;;;;;;;2.60;1.30;;;;;;;24.75;58.79;100266.25;18554103;32;20489;-57
2022/07/05 19:39:27;;;;;;;2.92;1.65;;;;;;;24.67;59.78;100264.06;18556573;32;20673;-56
2022/07/05 19:49:30;;;;;;;3.33;1.65;;;;;;;24.50;60.77;100253.63;18559936;32;20131;-56
2022/07/05 19:59:35;;;;;;;2.58;1.42;;;;;;;24.19;60.94;100253.75;18560472;32;20109;-57
2022/07/05 20:09:38;;;;;;;2.87;1.52;;;;;;;23.75;62.85;100243.97;18535465;31;20349;-56
2022/07/05 20:19:43;;;;;;;3.47;1.45;;;;;;;23.80;61.85;100233.84;18537963;32;20115;-56
2022/07/05 20:29:46;;;;;;;3.47;1.80;;;;;;;23.91;62.51;100228.75;18556711;32;20221;-56
2022/07/05 20:39:51;;;;;;;2.78;1.70;;;;;;;23.98;61.97;100235.41;18555802;32;20123;-56
2022/07/05 20:49:55;;;;;;;4.30;2.42;;;;;;;24.08;61.96;100233.06;18555107;32;20100;-57
2022/07/05 20:59:59;;;;;;;3.47;1.80;;;;;;;23.40;64.43;100229.97;18557423;32;20089;-56
2022/07/05 21:10:02;;;;;;;4.05;1.90;;;;;;;23.54;63.20;100237.16;18557211;32;20096;-56
2022/07/05 21:20:08;;;;;;;3.03;1.90;;;;;;;23.65;62.92;100231.19;18556885;32;20119;-56
2022/07/05 21:30:12;;;;;;;4.40;2.28;;;;;;;23.37;63.59;100250.59;18553934;31;20097;-56
2022/07/05 21:40:16;;;;;;;4.00;2.00;;;;;;;23.45;63.11;100245.69;18554658;32;20120;-57
2022/07/05 21:50:19;;;;;;;4.70;1.87;;;;;;;23.40;63.07;100248.62;18556361;32;20356;-57
2022/07/05 22:10:47;;;;;;;2.58;1.60;;;;;;;23.10;63.68;100268.06;18547417;32;20103;-56
2022/07/05 22:20:51;;;;;;;2.58;1.70;;;;;;;23.20;63.19;100264.88;18561336;32;20088;-57
2022/07/05 22:30:54;;;;;;;2.90;1.70;;;;;;;23.03;63.60;100274.66;18556067;32;20445;-56
2022/07/05 22:40:59;;;;;;;2.92;1.80;;;;;;;22.93;63.79;100279.66;18568838;31;20132;-56
2022/07/05 22:51:02;;;;;;;3.95;1.90;;;;;;;22.97;62.86;100285.69;18583217;31;20116;-56
2022/07/05 23:01:07;;;;;;;8.15;2.45;;;;;;;22.77;62.94;100285.00;18565889;31;20084;-56
2022/07/05 23:11:12;;;;;;;3.65;2.05;;;;;;;22.75;61.94;100286.00;18591859;31;20393;-56
2022/07/05 23:21:17;;;;;;;3.75;2.17;;;;;;;22.38;62.89;100288.81;18593182;31;20092;-57
2022/07/05 23:31:20;;;;;;;3.87;2.12;;;;;;;22.41;62.71;100299.31;18579780;31;20123;-56
2022/07/05 23:41:25;;;;;;;3.75;2.12;;;;;;;21.68;64.96;100298.59;18623348;31;20104;-56
2022/07/05 23:51:28;;;;;;;4.85;2.00;;;;;;;22.28;63.58;100297.28;18627925;31;20138;-56
